Time;durP1;ratioP1;P1;durP2;ratioP2;P2;SDS_P1;SDS_P2;PMS_P1;PMS_P2;Temp;Humidity;BMP_temperature;BMP_pressure;BME280_temperature;BME280_humidity;BME280_pressure;Samples;Min_cycle;Max_cycle;Signal;HPM_P1;HPM_P2
2022/03/01 00:01:27;;;;;;;19.35;12.52;;;1.40;99.90;;;-146.41;100.00;57768.22;4982669;28;20145;-68
2022/03/01 00:03:54;;;;;;;24.08;12.25;;;1.40;99.90;;;-146.41;100.00;57768.22;4979703;28;20135;-67
2022/03/01 00:06:21;;;;;;;19.50;11.38;;;1.30;99.90;;;-146.41;100.00;57768.22;4983851;28;20053;-67
2022/03/01 00:08:48;;;;;;;18.05;9.88;;;1.20;99.90;;;-146.41;100.00;57768.22;4984536;28;20067;-67
2022/03/01 00:11:15;;;;;;;21.15;11.30;;;1.20;99.90;;;-146.41;100.00;57768.22;4989368;28;20117;-68
2022/03/01 00:13:42;;;;;;;169.23;71.22;;;1.20;99.90;;;-146.41;100.00;57768.22;4982119;28;20124;-67
2022/03/01 00:16:10;;;;;;;87.82;38.83;;;;;;;-146.41;100.00;57768.22;4982086;28;20100;-67
2022/03/01 00:18:37;;;;;;;52.17;26.52;;;0.90;99.90;;;-146.41;100.00;57768.22;4984274;28;20073;-67
2022/03/01 00:21:07;;;;;;;101.68;45.33;;;0.90;99.90;;;-146.41;100.00;57768.22;4965302;28;20050;-67
2022/03/01 00:23:34;;;;;;;138.07;61.40;;;0.80;99.90;;;-146.41;100.00;57768.22;4981172;28;20158;-67
2022/03/01 00:26:01;;;;;;;85.38;42.05;;;0.70;99.90;;;-146.41;100.00;57768.22;4978632;28;20205;-67
2022/03/01 00:28:28;;;;;;;36.08;18.88;;;0.60;99.90;;;-146.41;100.00;57768.22;4979305;28;20119;-67
2022/03/01 00:30:56;;;;;;;29.02;16.25;;;0.60;99.90;;;-146.41;100.00;57768.22;4979544;28;20122;-67
2022/03/01 00:33:23;;;;;;;30.77;15.88;;;0.60;99.90;;;-146.41;100.00;57768.22;4982161;28;20061;-67
2022/03/01 00:35:50;;;;;;;32.67;15.80;;;0.50;99.90;;;-146.41;100.00;57768.22;4980160;28;20077;-68
2022/03/01 00:38:17;;;;;;;26.35;13.85;;;0.40;99.90;;;-146.41;100.00;57768.22;4981372;28;20176;-68
2022/03/01 00:40:44;;;;;;;18.52;10.88;;;0.30;99.90;;;-146.41;100.00;57768.22;4980411;28;20455;-67
2022/03/01 00:43:11;;;;;;;19.52;10.70;;;0.20;99.90;;;-146.41;100.00;57768.22;4978918;28;20085;-67
2022/03/01 00:45:40;;;;;;;17.55;10.07;;;0.20;99.90;;;-146.41;100.00;57768.22;4980836;28;20069;-67
2022/03/01 00:48:08;;;;;;;17.33;9.60;;;0.30;99.90;;;-146.41;100.00;57768.22;4981042;28;20125;-67
2022/03/01 00:50:35;;;;;;;15.02;9.63;;;0.20;99.90;;;-146.41;100.00;57768.22;4969922;28;20173;-67
2022/03/01 00:53:04;;;;;;;17.38;10.07;;;0.10;99.90;;;-146.41;100.00;57768.22;4980232;28;20149;-67
2022/03/01 00:55:32;;;;;;;17.05;9.43;;;0.00;99.90;;;-146.41;100.00;57768.22;4976372;28;20475;-67
2022/03/01 00:57:59;;;;;;;20.00;9.38;;;-0.10;99.90;;;-146.41;100.00;57768.22;4980325;28;20078;-67
2022/03/01 01:00:28;;;;;;;16.23;9.90;;;-0.10;99.90;;;-146.41;100.00;57768.22;4985584;28;20061;-67
2022/03/01 01:02:55;;;;;;;15.55;9.02;;;0.00;99.90;;;-146.41;100.00;57768.22;4969827;28;20054;-67
2022/03/01 01:05:23;;;;;;;17.38;10.20;;;0.00;99.90;;;-146.41;100.00;57768.22;4975362;28;20050;-68
2022/03/01 01:07:50;;;;;;;17.23;9.85;;;0.00;99.90;;;-146.41;100.00;57768.22;4966714;28;20138;-67
2022/03/01 01:10:19;;;;;;;17.17;9.90;;;0.10;99.90;;;-146.41;100.00;57768.22;4984348;28;20402;-67
2022/03/01 01:12:46;;;;;;;17.08;10.52;;;0.00;99.90;;;-146.41;100.00;57768.22;4979156;28;20074;-67
2022/03/01 01:15:17;;;;;;;16.90;10.95;;;-0.20;99.90;;;-146.41;100.00;57768.22;4980313;28;20042;-67
2022/03/01 01:17:45;;;;;;;13.23;8.65;;;-0.30;99.90;;;-146.41;100.00;57768.22;4968302;28;20055;-67
2022/03/01 01:20:14;;;;;;;12.95;8.85;;;;;;;-146.41;100.00;57768.22;4967167;28;20185;-67
2022/03/01 01:22:41;;;;;;;15.82;9.38;;;;;;;-146.41;100.00;57768.22;4978093;28;20141;-67
2022/03/01 01:25:13;;;;;;;12.57;8.02;;;;;;;-146.41;100.00;57768.22;4981330;28;20046;-67
2022/03/01 01:27:44;;;;;;;15.27;8.55;;;-0.40;99.90;;;-146.41;100.00;57768.22;4978248;28;20049;-67
2022/03/01 01:30:18;;;;;;;14.65;8.80;;;-0.40;99.90;;;-146.41;100.00;57768.22;4977436;28;20527;-67
2022/03/01 01:32:49;;;;;;;15.50;9.82;;;-0.40;99.90;;;-146.41;100.00;57768.22;4963532;28;20075;-67
2022/03/01 01:35:19;;;;;;;25.58;15.90;;;;;;;-146.41;100.00;57768.22;4964870;28;20133;-68
2022/03/01 01:37:47;;;;;;;21.35;13.55;;;;;;;-146.41;100.00;57768.22;4978896;28;20073;-67
2022/03/01 01:40:20;;;;;;;19.63;12.20;;;;;;;-146.41;100.00;57768.22;4975611;28;20477;-67
2022/03/01 01:42:47;;;;;;;20.80;12.32;;;;;;;-146.41;100.00;57768.22;4977380;28;20134;-68
2022/03/01 01:45:15;;;;;;;34.17;17.85;;;;;;;-146.41;100.00;57768.22;4974602;28;20130;-67
2022/03/01 01:47:47;;;;;;;46.53;25.88;;;;;;;-146.41;100.00;57768.22;4983021;28;20076;-67
2022/03/01 01:50:15;;;;;;;28.75;16.85;;;;;;;-146.41;100.00;57768.22;4985520;28;20046;-68
2022/03/01 01:52:45;;;;;;;24.02;13.70;;;;;;;-146.41;100.00;57768.22;4982463;28;20115;-67
2022/03/01 01:55:13;;;;;;;19.77;12.70;;;;;;;-146.41;100.00;57768.22;4969502;28;20086;-67
2022/03/01 01:57:40;;;;;;;16.83;10.77;;;-0.80;99.90;;;-146.41;100.00;57768.22;4978646;28;20070;-68
2022/03/01 02:00:10;;;;;;;20.17;12.38;;;-0.90;99.90;;;-146.41;100.00;57768.22;4982862;28;20082;-67
2022/03/01 02:02:38;;;;;;;18.80;11.95;;;-0.90;99.90;;;-146.41;100.00;57768.22;4982900;28;20532;-67
2022/03/01 02:05:07;;;;;;;26.40;14.90;;;-0.90;99.90;;;-146.41;100.00;57768.22;4979653;28;20141;-66
2022/03/01 02:07:35;;;;;;;26.23;15.43;;;-0.90;99.90;;;-146.41;100.00;57768.22;4976580;28;20471;-67
2022/03/01 02:10:08;;;;;;;21.98;13.25;;;-0.90;99.90;;;-146.41;100.00;57768.22;4983317;28;20466;-67
2022/03/01 02:12:35;;;;;;;21.60;13.87;;;-0.90;99.90;;;-146.41;100.00;57768.22;4977278;28;20070;-67
2022/03/01 02:15:02;;;;;;;23.13;12.85;;;-0.90;99.90;;;-146.41;100.00;57768.22;4975846;28;20097;-67
2022/03/01 02:17:30;;;;;;;20.40;12.32;;;-1.00;99.90;;;-146.41;100.00;57768.22;4950601;28;20137;-66
2022/03/01 02:19:57;;;;;;;19.85;11.50;;;-1.00;99.90;;;-146.41;100.00;57768.22;4984360;28;20051;-67
2022/03/01 02:22:33;;;;;;;19.17;12.75;;;-1.00;99.90;;;-146.41;100.00;57768.22;4982010;28;20153;-67
2022/03/01 02:25:00;;;;;;;20.67;12.45;;;-1.10;99.90;;;-146.41;100.00;57768.22;4965846;28;20074;-67
2022/03/01 02:27:29;;;;;;;22.65;12.73;;;-1.00;99.90;;;-146.41;100.00;57768.22;4981427;28;20440;-67
2022/03/01 02:29:57;;;;;;;19.33;11.75;;;-1.10;99.90;;;-146.41;100.00;57768.22;4964644;28;20138;-67
2022/03/01 02:32:24;;;;;;;27.23;14.77;;;-1.20;99.90;;;-146.41;100.00;57768.22;4978000;28;20575;-67
2022/03/01 02:34:50;;;;;;;24.35;12.75;;;-1.10;99.90;;;-146.41;100.00;57768.22;4976871;28;20620;-66
2022/03/01 02:37:18;;;;;;;22.88;13.15;;;-1.20;99.90;;;-146.41;100.00;57768.22;4978994;28;20136;-67
2022/03/01 02:39:45;;;;;;;27.05;15.02;;;-1.20;99.90;;;-146.41;100.00;57768.22;4978506;28;20065;-67
2022/03/01 02:42:12;;;;;;;40.90;20.98;;;-1.10;99.90;;;-146.41;100.00;57768.22;4979969;28;20061;-67
2022/03/01 02:44:39;;;;;;;33.28;17.92;;;-1.20;99.90;;;-146.41;100.00;57768.22;4985444;28;20132;-67
2022/03/01 02:47:06;;;;;;;26.48;14.65;;;-1.20;99.90;;;-146.41;100.00;57768.22;4983922;28;20458;-67
2022/03/01 02:49:33;;;;;;;30.80;16.95;;;-1.20;99.90;;;-146.41;100.00;57768.22;4979030;28;20061;-67
2022/03/01 02:52:00;;;;;;;28.00;15.70;;;-1.30;99.90;;;-146.41;100.00;57768.22;4981024;28;20134;-68
2022/03/01 02:54:27;;;;;;;36.47;17.33;;;-1.30;99.90;;;-146.41;100.00;57768.22;4981611;28;20149;-67
2022/03/01 02:56:59;;;;;;;32.40;17.67;;;-1.40;99.90;;;-146.41;100.00;57768.22;4981519;28;20066;-68
2022/03/01 02:59:26;;;;;;;30.42;16.77;;;-1.40;99.90;;;-146.41;100.00;57768.22;4980215;28;20125;-68
2022/03/01 03:01:53;;;;;;;32.13;18.13;;;-1.40;99.90;;;-146.41;100.00;57768.22;4962388;28;20068;-67
2022/03/01 03:04:20;;;;;;;29.02;17.15;;;-1.40;99.90;;;-146.41;100.00;57768.22;4980586;28;20085;-67
2022/03/01 03:06:48;;;;;;;17.67;10.40;;;-1.30;99.90;;;-146.41;100.00;57768.22;4982148;28;20116;-67
2022/03/01 03:09:16;;;;;;;17.50;10.65;;;-1.30;99.90;;;-146.41;100.00;57768.22;4977381;28;20078;-67
2022/03/01 03:11:43;;;;;;;16.27;10.23;;;-1.30;99.90;;;-146.41;100.00;57768.22;4980229;28;20472;-67
2022/03/01 03:14:10;;;;;;;19.10;10.45;;;-1.40;99.90;;;-146.41;100.00;57768.22;4963182;28;20123;-67
2022/03/01 03:16:38;;;;;;;18.02;10.25;;;-1.30;99.90;;;-146.41;100.00;57768.22;4978547;28;20055;-68
2022/03/01 03:19:05;;;;;;;14.98;8.93;;;-1.40;99.90;;;-146.41;100.00;57768.22;4980470;28;20137;-67
2022/03/01 03:21:32;;;;;;;17.35;10.23;;;-1.40;99.90;;;-146.41;100.00;57768.22;4976813;28;20100;-67
2022/03/01 03:24:00;;;;;;;16.42;10.25;;;-1.50;99.90;;;-146.41;100.00;57768.22;4980309;28;20129;-67
2022/03/01 03:26:27;;;;;;;19.88;10.15;;;-1.50;99.90;;;-146.41;100.00;57768.22;4978998;28;20425;-67
2022/03/01 03:28:54;;;;;;;18.95;11.25;;;-1.50;99.90;;;-146.41;100.00;57768.22;4973762;28;20226;-67
2022/03/01 03:31:21;;;;;;;15.98;9.95;;;-1.50;99.90;;;-146.41;100.00;57768.22;4953255;28;20127;-67
2022/03/01 03:33:48;;;;;;;17.15;9.50;;;-1.50;99.90;;;-146.41;100.00;57768.22;4979120;28;20077;-67
2022/03/01 03:36:15;;;;;;;17.58;10.15;;;-1.50;99.90;;;-146.41;100.00;57768.22;4980340;28;20117;-67
2022/03/01 03:38:43;;;;;;;19.88;11.18;;;-1.50;99.90;;;-146.41;100.00;57768.22;4976703;28;20134;-67
2022/03/01 03:41:10;;;;;;;22.55;15.07;;;-1.50;99.90;;;-146.41;100.00;57768.22;4979108;28;20225;-67
2022/03/01 03:43:37;;;;;;;19.73;13.10;;;-1.60;99.90;;;-146.41;100.00;57768.22;4978914;28;20129;-67
2022/03/01 03:46:05;;;;;;;16.80;11.13;;;-1.70;99.90;;;-146.41;100.00;57768.22;4979313;28;20510;-67
2022/03/01 03:48:32;;;;;;;19.60;11.90;;;-1.70;99.90;;;-146.41;100.00;57768.22;4979852;28;20070;-68
2022/03/01 03:50:59;;;;;;;20.23;12.95;;;-1.70;99.90;;;-146.41;100.00;57768.22;4981082;28;20069;-68
2022/03/01 03:53:26;;;;;;;21.85;11.88;;;-1.70;99.90;;;-146.41;100.00;57768.22;4978704;28;20072;-67
2022/03/01 03:55:55;;;;;;;18.60;11.55;;;-1.70;99.90;;;-146.41;100.00;57768.22;4981890;28;20047;-67
2022/03/01 03:58:22;;;;;;;54.15;30.80;;;-1.70;99.90;;;-146.41;100.00;57768.22;4980042;28;20158;-67
2022/03/01 04:00:49;;;;;;;29.63;18.23;;;-1.70;99.90;;;-146.41;100.00;57768.22;4980904;28;20148;-68
2022/03/01 04:03:17;;;;;;;24.27;15.30;;;-1.70;99.90;;;-146.41;100.00;57768.22;4979932;28;20143;-67
2022/03/01 04:05:45;;;;;;;29.00;17.60;;;-1.80;99.90;;;-146.41;100.00;57768.22;4980117;28;20073;-67
2022/03/01 04:08:13;;;;;;;29.25;17.77;;;-1.80;99.90;;;-146.41;100.00;57768.22;4963338;28;20532;-68
2022/03/01 04:10:40;;;;;;;24.77;15.90;;;-1.90;99.90;;;-146.41;100.00;57768.22;4979142;28;20129;-67
2022/03/01 04:13:07;;;;;;;27.83;16.65;;;-2.00;99.90;;;-146.41;100.00;57768.22;4979089;28;20502;-67
2022/03/01 04:15:35;;;;;;;27.30;18.00;;;-2.00;99.90;;;-146.41;100.00;57768.22;4976965;28;20063;-67
2022/03/01 04:18:03;;;;;;;31.40;17.90;;;-2.00;99.90;;;-146.41;100.00;57768.22;4975281;28;20126;-67
2022/03/01 04:20:31;;;;;;;23.73;15.02;;;-2.00;99.90;;;-146.41;100.00;57768.22;4959153;28;20130;-68
2022/03/01 04:22:58;;;;;;;18.33;12.15;;;-1.90;99.90;;;-146.41;100.00;57768.22;4976905;28;20126;-67
2022/03/01 04:25:25;;;;;;;21.42;12.57;;;-1.80;99.90;;;-146.41;100.00;57768.22;4975699;28;20137;-68
2022/03/01 04:27:52;;;;;;;16.48;10.63;;;-1.80;99.90;;;-146.41;100.00;57768.22;4978168;28;20124;-68
2022/03/01 04:30:19;;;;;;;18.17;10.80;;;-1.90;99.90;;;-146.41;100.00;57768.22;4977691;28;20133;-68
2022/03/01 04:32:46;;;;;;;19.17;11.00;;;-1.90;99.90;;;-146.41;100.00;57768.22;4979472;28;20543;-68
2022/03/01 04:35:14;;;;;;;18.00;10.45;;;-2.00;99.90;;;-146.41;100.00;57768.22;4983351;28;20534;-67
2022/03/01 04:37:43;;;;;;;17.20;11.05;;;-2.10;99.90;;;-146.41;100.00;57768.22;4964833;28;20129;-67
2022/03/01 04:40:12;;;;;;;22.05;10.75;;;-2.00;99.90;;;-146.41;100.00;57768.22;4965984;28;20177;-67
2022/03/01 04:42:40;;;;;;;15.45;9.60;;;-1.90;99.90;;;-146.41;100.00;57768.22;4983544;28;20171;-67
2022/03/01 04:45:09;;;;;;;14.38;9.27;;;-1.80;99.90;;;-146.41;100.00;57768.22;4964336;28;20510;-68
2022/03/01 04:47:38;;;;;;;16.42;9.65;;;-1.70;99.90;;;-146.41;100.00;57768.22;4985105;28;20053;-68
2022/03/01 04:50:06;;;;;;;14.93;9.75;;;-1.80;99.90;;;-146.41;100.00;57768.22;4964096;28;20507;-68
2022/03/01 04:52:33;;;;;;;17.98;9.07;;;-1.90;99.90;;;-146.41;100.00;57768.22;4984172;28;20114;-67
2022/03/01 04:54:59;;;;;;;16.92;8.90;;;-1.80;99.90;;;-146.41;100.00;57768.22;4981405;28;20822;-67
2022/03/01 04:57:30;;;;;;;15.13;7.97;;;-1.80;99.90;;;-146.41;100.00;57768.22;4983030;28;20601;-66
2022/03/01 04:59:57;;;;;;;13.52;8.63;;;-1.80;99.90;;;-146.41;100.00;57768.22;4981245;28;20570;-67
2022/03/01 05:02:24;;;;;;;13.88;8.82;;;-1.90;99.90;;;-146.41;100.00;57768.22;4982464;28;20537;-67
2022/03/01 05:04:51;;;;;;;13.93;8.18;;;-2.00;99.90;;;-146.41;100.00;57768.22;4983672;28;20050;-67
2022/03/01 05:07:18;;;;;;;14.93;8.30;;;-2.10;99.90;;;-146.41;100.00;57768.22;4976691;28;20046;-67
2022/03/01 05:09:45;;;;;;;15.77;9.27;;;-2.00;99.90;;;-146.41;100.00;57768.22;4978672;28;20570;-68
2022/03/01 05:12:12;;;;;;;18.40;10.10;;;-2.00;99.90;;;-146.41;100.00;57768.22;4981371;28;20089;-66
2022/03/01 05:14:39;;;;;;;18.55;10.50;;;-2.00;99.90;;;-146.41;100.00;57768.22;4982835;28;20152;-67
2022/03/01 05:17:06;;;;;;;16.65;10.30;;;-2.00;99.90;;;-146.41;100.00;57768.22;4981378;28;20085;-69
2022/03/01 05:19:34;;;;;;;20.08;10.93;;;-1.90;99.90;;;-146.41;100.00;57768.22;4979953;28;20085;-68
2022/03/01 05:22:01;;;;;;;18.15;10.05;;;-1.90;99.90;;;-146.41;100.00;57768.22;4979978;28;20133;-69
2022/03/01 05:24:29;;;;;;;18.17;10.32;;;-1.80;99.90;;;-146.41;100.00;57768.22;4980294;28;20134;-68
2022/03/01 05:26:56;;;;;;;20.33;10.30;;;-1.80;99.90;;;-146.41;100.00;57768.22;4982109;28;20149;-69
2022/03/01 05:29:22;;;;;;;17.50;9.82;;;-2.00;99.90;;;-146.41;100.00;57768.22;4980541;28;20089;-68
2022/03/01 05:31:50;;;;;;;24.92;15.90;;;-2.10;99.90;;;-146.41;100.00;57768.22;4982302;28;20046;-68
2022/03/01 05:34:17;;;;;;;26.05;15.40;;;-2.30;99.90;;;-146.41;100.00;57768.22;4978538;28;20126;-68
2022/03/01 05:36:48;;;;;;;27.00;15.25;;;-2.40;99.90;;;-146.41;100.00;57768.22;4980830;28;20418;-68
2022/03/01 05:39:15;;;;;;;27.23;16.17;;;-2.40;99.90;;;-146.41;100.00;57768.22;4980406;28;20122;-68
2022/03/01 05:41:42;;;;;;;27.45;14.85;;;-2.30;99.90;;;-146.41;100.00;57768.22;4976876;28;20134;-69
2022/03/01 05:44:09;;;;;;;30.30;17.17;;;-2.30;99.90;;;-146.41;100.00;57768.22;4977518;28;20141;-68
2022/03/01 05:46:36;;;;;;;36.42;19.33;;;-2.30;99.90;;;-146.41;100.00;57768.22;4981830;28;20130;-69
2022/03/01 05:49:03;;;;;;;33.35;17.92;;;-2.20;99.90;;;-146.41;100.00;57768.22;4981837;28;20038;-66
2022/03/01 05:51:30;;;;;;;30.73;16.30;;;-2.20;99.90;;;-146.41;100.00;57768.22;4979090;28;20126;-69
2022/03/01 05:53:58;;;;;;;32.33;17.13;;;-2.30;99.90;;;-146.41;100.00;57768.22;4968039;28;20125;-69
2022/03/01 05:56:25;;;;;;;34.30;17.65;;;-2.30;99.90;;;-146.41;100.00;57768.22;4978160;28;20077;-69
2022/03/01 05:58:52;;;;;;;32.53;19.23;;;-2.40;99.90;;;-146.41;100.00;57768.22;4975961;28;20125;-68
2022/03/01 06:01:19;;;;;;;31.40;17.85;;;-2.40;99.90;;;-146.41;100.00;57768.22;4976699;28;20146;-68
2022/03/01 06:03:46;;;;;;;28.90;15.77;;;-2.40;99.90;;;-146.41;100.00;57768.22;4978984;28;20586;-68
2022/03/01 06:06:14;;;;;;;27.98;15.27;;;-2.40;99.90;;;-146.41;100.00;57768.22;4977177;28;20523;-68
2022/03/01 06:08:41;;;;;;;26.30;14.63;;;-2.40;99.90;;;-146.41;100.00;57768.22;4974583;28;20151;-69
2022/03/01 06:11:08;;;;;;;25.25;13.63;;;-2.30;99.90;;;-146.41;100.00;57768.22;4981947;28;20209;-69
2022/03/01 06:13:37;;;;;;;29.42;14.80;;;-2.40;99.90;;;-146.41;100.00;57768.22;4978369;28;20077;-68
2022/03/01 06:16:05;;;;;;;26.67;13.45;;;-2.40;99.90;;;-146.41;100.00;57768.22;4977365;28;20504;-69
2022/03/01 06:18:32;;;;;;;21.10;11.50;;;-2.40;99.90;;;-146.41;100.00;57768.22;4974215;28;20073;-69
2022/03/01 06:21:00;;;;;;;20.15;12.27;;;-2.20;99.90;;;-146.41;100.00;57768.22;4979208;28;20138;-69
2022/03/01 06:23:28;;;;;;;23.13;11.95;;;-2.20;99.90;;;-146.41;100.00;57768.22;4973958;28;20085;-69
2022/03/01 06:25:55;;;;;;;26.02;12.85;;;-2.10;99.90;;;-146.41;100.00;57768.22;4981231;28;20081;-68
2022/03/01 06:28:22;;;;;;;28.48;14.07;;;-2.10;99.90;;;-146.41;100.00;57768.22;4982013;28;20046;-69
2022/03/01 06:30:49;;;;;;;21.73;11.57;;;-2.00;99.90;;;-146.41;100.00;57768.22;4979879;28;20069;-69
2022/03/01 06:33:18;;;;;;;22.60;12.10;;;-1.90;99.90;;;-146.41;100.00;57768.22;4981805;28;20054;-68
2022/03/01 06:35:46;;;;;;;20.23;11.32;;;-1.80;99.90;;;-146.41;100.00;57768.22;4978641;28;20517;-68
2022/03/01 06:38:13;;;;;;;24.17;12.75;;;-1.70;99.90;;;-146.41;100.00;57768.22;4977995;28;20122;-68
2022/03/01 06:40:40;;;;;;;21.50;12.52;;;-1.80;99.90;;;-146.41;100.00;57768.22;4978204;28;20077;-69
2022/03/01 06:43:07;;;;;;;22.50;12.00;;;-1.80;99.90;;;-146.41;100.00;57768.22;4981647;28;20042;-68
2022/03/01 06:45:34;;;;;;;21.70;11.48;;;-1.90;99.90;;;-146.41;100.00;57768.22;4977698;28;20132;-68
2022/03/01 06:48:01;;;;;;;19.27;10.85;;;-2.00;99.90;;;-146.41;100.00;57768.22;4978533;28;20459;-69
2022/03/01 06:50:28;;;;;;;20.45;11.10;;;-1.90;99.90;;;-146.41;100.00;57768.22;4973580;28;20054;-69
2022/03/01 06:52:55;;;;;;;18.17;10.10;;;-1.90;99.90;;;-146.41;100.00;57768.22;4977765;28;20138;-68
2022/03/01 06:55:23;;;;;;;21.70;12.38;;;-1.80;99.90;;;-146.41;100.00;57768.22;4977382;28;20051;-68
2022/03/01 06:57:50;;;;;;;25.40;13.57;;;-1.80;99.90;;;-146.41;100.00;57768.22;4975374;28;20077;-69
2022/03/01 07:00:17;;;;;;;24.52;13.38;;;-1.60;99.90;;;-146.41;100.00;57768.22;4980861;28;20168;-68
2022/03/01 07:02:45;;;;;;;21.75;11.90;;;-1.30;99.90;;;-146.41;100.00;57768.22;4979251;28;20054;-69
2022/03/01 07:05:15;;;;;;;24.02;12.80;;;-1.10;99.90;;;-146.41;100.00;57768.22;4964528;28;20120;-68
2022/03/01 07:07:43;;;;;;;21.80;12.70;;;-0.90;99.90;;;-146.41;100.00;57768.22;4977744;28;20112;-68
2022/03/01 07:10:12;;;;;;;23.30;12.32;;;-0.80;99.90;;;-146.41;100.00;57768.22;4977092;28;20081;-69
2022/03/01 07:12:41;;;;;;;20.52;12.50;;;-0.70;99.90;;;-146.41;100.00;57768.22;4962330;28;20085;-69
2022/03/01 07:15:09;;;;;;;23.33;12.20;;;-0.60;99.90;;;-146.41;100.00;57768.22;4980379;28;20154;-68
2022/03/01 07:17:43;;;;;;;24.33;13.15;;;-0.60;99.90;;;-146.41;100.00;57768.22;4967363;28;20078;-68
2022/03/01 07:20:11;;;;;;;21.45;12.35;;;-0.60;99.90;;;-146.41;100.00;57768.22;4979367;28;20108;-68
2022/03/01 07:22:38;;;;;;;22.17;12.52;;;-0.60;99.90;;;-146.41;100.00;57768.22;4982678;28;20479;-68
2022/03/01 07:25:07;;;;;;;20.65;11.50;;;-0.50;99.90;;;-146.41;100.00;57768.22;4979348;28;20138;-68
2022/03/01 07:27:34;;;;;;;21.90;11.90;;;-0.50;99.90;;;-146.41;100.00;57768.22;4979561;28;20221;-68
2022/03/01 07:30:01;;;;;;;22.25;12.77;;;-0.50;99.90;;;-146.41;100.00;57768.22;4978808;28;20042;-68
2022/03/01 07:32:27;;;;;;;23.92;11.98;;;-0.50;99.90;;;-146.41;100.00;57768.22;4961103;28;20081;-68
2022/03/01 07:34:54;;;;;;;23.75;12.60;;;-0.50;99.90;;;-146.41;100.00;57768.22;4977105;28;20192;-68
2022/03/01 07:37:23;;;;;;;24.25;12.35;;;-0.40;99.90;;;-146.41;100.00;57768.22;4980480;28;20105;-67
2022/03/01 07:39:50;;;;;;;24.05;12.20;;;-0.40;99.90;;;-146.41;100.00;57768.22;4980020;28;20089;-68
2022/03/01 07:42:17;;;;;;;25.13;12.35;;;-0.30;99.90;;;-146.41;100.00;57768.22;4976651;28;20074;-68
2022/03/01 07:44:46;;;;;;;20.80;11.30;;;-0.30;99.90;;;-146.41;100.00;57768.22;4979243;28;20197;-68
2022/03/01 07:47:13;;;;;;;20.77;12.05;;;-0.20;99.90;;;-146.41;100.00;57768.22;4973766;28;20109;-68
2022/03/01 07:49:42;;;;;;;20.38;11.82;;;-0.10;99.90;;;-146.41;100.00;57768.22;4974327;28;20058;-68
2022/03/01 07:52:09;;;;;;;20.88;11.25;;;0.10;99.90;;;-146.41;100.00;57768.22;4959002;28;20515;-67
2022/03/01 07:54:36;;;;;;;21.20;11.55;;;0.30;99.90;;;-146.41;100.00;57768.22;4976802;28;20125;-68
2022/03/01 07:57:03;;;;;;;21.17;11.80;;;0.90;99.90;;;-146.41;100.00;57768.22;4976707;28;20082;-68
2022/03/01 07:59:30;;;;;;;19.27;10.57;;;1.60;99.90;;;-146.41;100.00;57768.22;4970378;28;20047;-68
2022/03/01 08:01:57;;;;;;;18.08;9.23;;;2.20;99.90;;;-146.41;100.00;57768.22;4978506;28;20133;-69
2022/03/01 08:04:25;;;;;;;17.60;10.48;;;2.70;99.90;;;-146.41;100.00;57768.22;4979544;28;20050;-69
2022/03/01 08:06:52;;;;;;;18.05;10.27;;;3.00;99.90;;;-146.41;100.00;57768.22;4976937;28;20567;-68
2022/03/01 08:09:19;;;;;;;18.05;10.82;;;3.30;99.90;;;-146.41;100.00;57768.22;4980929;28;20125;-69
2022/03/01 08:11:46;;;;;;;23.27;10.50;;;3.70;99.90;;;-146.41;100.00;57768.22;4982492;28;20086;-68
2022/03/01 08:14:13;;;;;;;18.88;10.70;;;3.60;99.90;;;-146.41;100.00;57768.22;4963818;28;20173;-68
2022/03/01 08:16:40;;;;;;;19.13;10.88;;;4.00;99.90;;;-146.41;100.00;57768.22;4983921;28;20059;-69
2022/03/01 08:19:08;;;;;;;19.77;10.90;;;;;;;-146.41;100.00;57768.22;4981774;28;20590;-69
2022/03/01 08:21:35;;;;;;;19.05;10.10;;;4.60;98.20;;;-146.41;100.00;57768.22;4980743;28;20097;-68
2022/03/01 08:24:02;;;;;;;20.58;10.35;;;5.20;97.70;;;-146.41;100.00;57768.22;4981309;28;20078;-68
2022/03/01 08:26:29;;;;;;;17.25;10.27;;;5.20;95.80;;;-146.41;100.00;57768.22;4983552;28;20074;-69
2022/03/01 08:28:56;;;;;;;17.33;9.45;;;5.10;95.20;;;-146.41;100.00;57768.22;4983093;28;20054;-68
2022/03/01 08:31:23;;;;;;;17.48;10.15;;;5.40;95.50;;;-146.41;100.00;57768.22;4979361;28;20054;-69
2022/03/01 08:33:50;;;;;;;16.60;10.20;;;5.90;94.60;;;-146.41;100.00;57768.22;4972002;28;20514;-69
2022/03/01 08:36:17;;;;;;;14.75;9.30;;;6.50;93.40;;;-146.41;100.00;57768.22;4975753;28;20055;-68
2022/03/01 08:38:44;;;;;;;14.23;9.20;;;7.00;92.40;;;-146.41;100.00;57768.22;4980147;28;20062;-66
2022/03/01 08:41:12;;;;;;;16.83;10.32;;;7.30;91.70;;;-146.41;100.00;57768.22;4981895;28;20352;-68
2022/03/01 08:43:39;;;;;;;14.05;9.32;;;7.70;90.50;;;-146.41;100.00;57768.22;4977906;28;20133;-68
2022/03/01 08:46:11;;;;;;;15.15;10.02;;;7.70;89.50;;;-146.41;100.00;57768.22;4981980;28;20090;-68
2022/03/01 08:48:39;;;;;;;15.20;9.77;;;7.50;88.30;;;-146.41;100.00;57768.22;4979886;28;20597;-68
2022/03/01 08:51:07;;;;;;;15.45;9.77;;;7.50;88.00;;;-146.41;100.00;57768.22;4971966;28;20043;-68
2022/03/01 08:53:34;;;;;;;15.93;9.77;;;7.10;88.50;;;-146.41;100.00;57768.22;4984944;28;20078;-68
2022/03/01 08:56:01;;;;;;;15.80;9.77;;;6.80;88.40;;;-146.41;100.00;57768.22;4980553;28;20114;-68
2022/03/01 08:58:28;;;;;;;15.13;9.02;;;6.60;89.10;;;-146.41;100.00;57768.22;4982529;28;20141;-68
2022/03/01 09:00:55;;;;;;;16.65;9.55;;;6.80;90.20;;;-146.41;100.00;57768.22;4984666;28;20089;-68
2022/03/01 09:03:26;;;;;;;21.02;11.43;;;7.00;90.40;;;-146.41;100.00;57768.22;4984003;28;20090;-67
2022/03/01 09:06:11;;;;;;;18.02;9.60;;;7.20;88.90;;;-146.41;100.00;57768.22;4980027;28;20051;-67
2022/03/01 09:08:40;;;;;;;17.55;9.43;;;7.20;88.50;;;-146.41;100.00;57768.22;4977651;28;20086;-67
2022/03/01 09:11:09;;;;;;;17.30;9.43;;;7.10;88.00;;;-146.41;100.00;57768.22;4979659;28;20053;-67
2022/03/01 09:13:38;;;;;;;15.50;8.45;;;7.00;89.50;;;-146.41;100.00;57768.22;4980326;28;20100;-67
2022/03/01 09:16:06;;;;;;;15.90;9.68;;;6.50;88.10;;;-146.41;100.00;57768.22;4976685;28;20054;-67
2022/03/01 09:18:34;;;;;;;16.85;9.55;;;6.60;90.10;;;-146.41;100.00;57768.22;4980189;28;20109;-66
2022/03/01 09:21:03;;;;;;;17.38;10.15;;;6.30;89.50;;;-146.41;100.00;57768.22;4976301;28;20388;-67
2022/03/01 09:23:31;;;;;;;15.05;8.93;;;5.90;90.10;;;-146.41;100.00;57768.22;4979322;28;20133;-67
2022/03/01 09:25:58;;;;;;;18.17;9.30;;;6.00;90.70;;;-146.41;100.00;57768.22;4976811;28;20145;-66
2022/03/01 09:28:25;;;;;;;14.98;8.90;;;5.70;90.50;;;-146.41;100.00;57768.22;4980386;28;20137;-68
2022/03/01 09:30:52;;;;;;;16.73;8.98;;;5.70;90.00;;;-146.41;100.00;57768.22;4981190;28;20478;-67
2022/03/01 09:33:19;;;;;;;13.55;8.68;;;5.80;90.90;;;-146.41;100.00;57768.22;4978182;28;20559;-67
2022/03/01 09:35:47;;;;;;;16.90;9.45;;;5.90;90.60;;;-146.41;100.00;57768.22;4981151;28;20104;-66
2022/03/01 09:38:14;;;;;;;14.10;8.85;;;5.70;89.90;;;-146.41;100.00;57768.22;4976866;28;20078;-67
2022/03/01 09:40:47;;;;;;;14.68;8.65;;;5.60;89.30;;;-146.41;100.00;57768.22;4980110;28;20137;-67
2022/03/01 09:43:15;;;;;;;15.60;9.32;;;5.60;90.30;;;-146.41;100.00;57768.22;4979480;28;20129;-67
2022/03/01 09:45:42;;;;;;;14.63;8.80;;;5.70;90.50;;;-146.41;100.00;57768.22;4978963;28;20531;-67
2022/03/01 09:48:10;;;;;;;15.48;8.50;;;5.70;90.40;;;-146.41;100.00;57768.22;4979210;28;20085;-68
2022/03/01 09:50:37;;;;;;;13.80;7.93;;;5.70;90.00;;;-146.41;100.00;57768.22;4961570;28;20376;-67
2022/03/01 09:53:04;;;;;;;12.63;7.68;;;5.80;89.70;;;-146.41;100.00;57768.22;4980883;28;20341;-67
2022/03/01 09:55:31;;;;;;;14.98;8.88;;;5.60;89.90;;;-146.41;100.00;57768.22;4980882;28;20129;-67
2022/03/01 09:57:59;;;;;;;15.57;8.40;;;5.70;90.50;;;-146.41;100.00;57768.22;4980211;28;20080;-67